No particular awareness of the weather is required.    There are no Weather-warnings


Meteo18 Weather Cam more information Meteo18 Weather Cam


Thunder radar more information blitzortung!


Rain radar more information rain snow radar


Visit our other weather sites:

Template documentation
and downloads

And another site



Weather Underground History page Text

Daily Summary for October 13, 2017 Units:  English    Metric   Both
« Previous Day
Next Day »
Daily Weekly Monthly Yearly Custom
  High: Low: Average:
Temperature: TemperatureC °F 8.4 °F 14 °F
Dew Point: DewpointC °F 8.0 °F 11.8 °F
Humidity: Humidity % 63 % 87 %
Wind Speed: WindSpeedKMH mph 0.0 mph 0.8 mph
Wind Gust: WindSpeedGustKMH mph - -
Wind:- - SSE
Pressure: PressurehPa in 1026.3 in -
Precipitation: 0.5 in    
Historical Graphs
 
 
Tabular Data for October 13, 2017
Time Temperature Dew Point Pressure Wind Wind Speed Wind Gust Humidity Rainfall Rate (Hourly)
TemperatureC °F DewpointC °F PressurehPa in Calm     Humidity % HourlyPrecipMM in
00:02 11.6 °F 11.1 °F 1027.7 in Calm     97 % 0.0 in
00:12 11.8 °F 11.3 °F 1027.7 in Calm     97 % 0.0 in
00:17 11.6 °F 11.1 °F 1027.7 in Calm     97 % 0.0 in
00:22 11.6 °F 11.1 °F 1027.7 in Calm     97 % 0.0 in
00:27 11.3 °F 10.7 °F 1027.7 in Calm     96 % 0.0 in
00:32 11.2 °F 10.7 °F 1027.7 in Calm     97 % 0.0 in
00:37 11.3 °F 10.8 °F 1027.7 in Calm     97 % 0.0 in
00:42 11.5 °F 11.0 °F 1027.7 in Calm     97 % 0.3 in
00:52 11.2 °F 10.7 °F 1027.7 in Calm     97 % 0.3 in
01:02 10.9 °F 10.4 °F 1027.7 in Calm     97 % 0.3 in
01:12 10.7 °F 10.2 °F 1027.7 in Calm     97 % 0.3 in
01:17 10.6 °F 10.1 °F 1027.7 in Calm     97 % 0.3 in
01:22 10.6 °F 10.1 °F 1027.7 in Calm     97 % 0.3 in
01:27 10.5 °F 10.0 °F 1027.7 in Calm     97 % 0.3 in
01:32 10.5 °F 10.0 °F 1027.7 in Calm     97 % 0.3 in
01:37 10.4 °F 9.9 °F 1027.7 in Calm     97 % 0.3 in
01:42 10.3 °F 9.8 °F 1027.7 in Calm     97 % 0.0 in
01:47 10.3 °F 9.8 °F 1027.7 in Calm     97 % 0.0 in
01:52 10.2 °F 9.7 °F 1027.7 in Calm     97 % 0.0 in
01:57 10.2 °F 9.7 °F 1027.7 in Calm     97 % 0.0 in
02:02 10.3 °F 9.8 °F 1027.7 in Calm     97 % 0.0 in
02:12 10.1 °F 9.6 °F 1027.7 in Calm     97 % 0.0 in
02:17 10.3 °F 9.8 °F 1027.7 in Calm     97 % 0.0 in
02:22 10.3 °F 9.8 °F 1027.7 in Calm     97 % 0.0 in
02:27 10.6 °F 10.3 °F 1027.7 in Calm     98 % 0.0 in
02:32 10.5 °F 10.0 °F 1027.7 in Calm     97 % 0.0 in
02:42 10.1 °F 9.6 °F 1027.7 in Calm     97 % 0.0 in
02:47 10.1 °F 9.6 °F 1027.7 in Calm     97 % 0.0 in
02:52 9.9 °F 9.4 °F 1027.7 in Calm     97 % 0.0 in
02:57 10.0 °F 9.5 °F 1027.7 in Calm     97 % 0.0 in
03:02 9.9 °F 9.4 °F 1028.0 in Calm     97 % 0.0 in
03:12 10.3 °F 10.0 °F 1027.7 in Calm     98 % 0.0 in
03:17 10.3 °F 10.0 °F 1027.7 in Calm     98 % 0.0 in
03:22 10.2 °F 9.9 °F 1027.7 in Calm     98 % 0.0 in
03:27 9.9 °F 9.4 °F 1027.7 in Calm     97 % 0.0 in
03:37 9.8 °F 9.3 °F 1027.7 in Calm     97 % 0.0 in
03:42 9.9 °F 9.4 °F 1027.7 in Calm     97 % 0.0 in
03:47 9.7 °F 9.2 °F 1027.7 in Calm     97 % 0.0 in
03:52 9.8 °F 9.3 °F 1027.7 in Calm     97 % 0.0 in
03:57 9.8 °F 9.3 °F 1027.7 in Calm     97 % 0.0 in
04:02 10.1 °F 9.8 °F 1027.7 in Calm     98 % 0.0 in
04:12 10.1 °F 9.8 °F 1027.7 in Calm     98 % 0.0 in
04:17 10.1 °F 9.8 °F 1027.7 in Calm     98 % 0.0 in
04:22 10.1 °F 9.8 °F 1027.7 in Calm     98 % 0.0 in
04:32 10.1 °F 9.8 °F 1027.7 in Calm     98 % 0.0 in
04:42 9.9 °F 9.4 °F 1027.7 in Calm     97 % 0.0 in
04:47 9.8 °F 9.3 °F 1027.7 in Calm     97 % 0.0 in
04:52 9.8 °F 9.3 °F 1027.7 in Calm     97 % 0.0 in
04:57 9.7 °F 9.2 °F 1027.3 in Calm     97 % 0.0 in
05:02 9.8 °F 9.3 °F 1027.7 in Calm     97 % 0.0 in
05:07 9.9 °F 9.6 °F 1027.3 in Calm     98 % 0.0 in
05:12 10.1 °F 9.8 °F 1027.7 in Calm     98 % 0.0 in
05:22 10.1 °F 9.8 °F 1027.3 in Calm     98 % 0.0 in
05:32 9.7 °F 9.2 °F 1027.3 in Calm     97 % 0.0 in
05:42 9.5 °F 9.0 °F 1027.7 in Calm     97 % 0.0 in
05:47 9.6 °F 9.1 °F 1027.7 in Calm     97 % 0.0 in
05:52 9.4 °F 8.9 °F 1027.7 in Calm     97 % 0.0 in
05:57 9.1 °F 8.6 °F 1027.7 in Calm     97 % 0.0 in
06:02 8.9 °F 8.4 °F 1027.7 in Calm     97 % 0.0 in
06:12 9.2 °F 8.9 °F 1027.3 in Calm     98 % 0.0 in
06:17 9.2 °F 8.9 °F 1027.3 in Calm     98 % 0.0 in
06:22 9.3 °F 9.0 °F 1027.7 in Calm     98 % 0.0 in
06:27 9.2 °F 8.9 °F 1027.7 in Calm     98 % 0.0 in
06:32 9.2 °F 8.9 °F 1027.7 in Calm     98 % 0.0 in
06:37 9.2 °F 8.9 °F 1027.7 in Calm     98 % 0.0 in
06:47 9.0 °F 8.7 °F 1027.7 in Calm     98 % 0.0 in
06:52 8.9 °F 8.4 °F 1027.7 in Calm     97 % 0.0 in
07:02 9.3 °F 9.0 °F 1027.7 in Calm     98 % 0.3 in
07:12 9.1 °F 8.8 °F 1027.3 in Calm     98 % 0.3 in
07:17 8.9 °F 8.4 °F 1027.3 in Calm     97 % 0.3 in
07:22 8.8 °F 8.3 °F 1027.3 in Calm     97 % 0.3 in
07:32 8.8 °F 8.3 °F 1027.3 in Calm     97 % 0.3 in
07:42 9.2 °F 8.9 °F 1027.3 in Calm     98 % 0.3 in
07:47 9.2 °F 8.9 °F 1027.3 in Calm   1.6 mph 98 % 0.3 in
07:52 9.2 °F 8.9 °F 1027.3 in Calm   1.6 mph 98 % 0.3 in
07:57 9.1 °F 8.8 °F 1027.3 in Calm   3.2 mph 98 % 0.0 in
08:02 8.8 °F 8.5 °F 1027.3 in North 1.6 mph 3.2 mph 98 % 0.0 in
08:12 8.4 °F 8.0 °F 1027.7 in Calm   3.2 mph 97 % 0.0 in
08:17 8.4 °F 8.0 °F 1027.7 in Calm   3.2 mph 97 % 0.0 in
08:22 8.4 °F 8.0 °F 1027.7 in Calm   3.2 mph 97 % 0.0 in
08:27 8.4 °F 8.0 °F 1027.7 in Calm     97 % 0.0 in
08:32 8.4 °F 8.0 °F 1027.7 in Calm     97 % 0.0 in
08:42 8.5 °F 8.2 °F 1027.7 in Calm     98 % 0.0 in
08:52 8.9 °F 8.6 °F 1027.7 in Calm     98 % 0.0 in
09:02 9.3 °F 9.0 °F 1027.7 in Calm     98 % 0.0 in
09:07 9.6 °F 9.3 °F 1027.7 in Calm     98 % 0.0 in
09:12 9.7 °F 9.4 °F 1027.7 in Calm     98 % 0.0 in
09:17 10.1 °F 9.8 °F 1027.7 in Calm     98 % 0.0 in
09:22 10.4 °F 10.1 °F 1027.7 in Calm     98 % 0.0 in
09:32 10.7 °F 10.4 °F 1027.7 in Calm     98 % 0.0 in
09:37 10.8 °F 10.5 °F 1027.7 in Calm     98 % 0.0 in
09:42 11.0 °F 10.7 °F 1027.7 in Calm     98 % 0.0 in
09:52 11.3 °F 11.0 °F 1027.7 in Calm     98 % 0.0 in
09:57 11.4 °F 11.1 °F 1027.7 in Calm     98 % 0.0 in
10:02 11.5 °F 11.2 °F 1027.7 in Calm     98 % 0.0 in
10:12 11.6 °F 11.3 °F 1028.0 in Calm     98 % 0.0 in
10:17 11.7 °F 11.4 °F 1028.0 in Calm     98 % 0.0 in
10:22 11.9 °F 11.6 °F 1028.0 in Calm     98 % 0.0 in
10:27 12.2 °F 11.9 °F 1028.0 in Calm     98 % 0.0 in
10:32 12.6 °F 12.3 °F 1028.0 in Calm     98 % 0.0 in
10:42 12.6 °F 12.3 °F 1028.0 in Calm   1.6 mph 98 % 0.0 in
10:52 13.2 °F 12.9 °F 1028.0 in Calm   1.6 mph 98 % 0.0 in
10:57 13.4 °F 13.1 °F 1028.0 in Calm   3.2 mph 98 % 0.0 in
11:02 13.5 °F 13.2 °F 1028.0 in Calm   3.2 mph 98 % 0.0 in
11:12 13.6 °F 13.3 °F 1028.3 in Calm   3.2 mph 98 % 0.0 in
11:17 13.4 °F 12.9 °F 1028.3 in Calm     97 % 0.0 in
11:22 13.6 °F 13.1 °F 1028.3 in Calm     97 % 0.0 in
11:32 13.9 °F 13.6 °F 1028.3 in Calm     98 % 0.0 in
11:42 14.2 °F 13.7 °F 1028.3 in ENE 4.8 mph   97 % 0.0 in
11:52 14.7 °F 14.2 °F 1028.3 in Calm   4.8 mph 97 % 0.0 in
11:57 14.9 °F 14.4 °F 1028.3 in Calm   8.0 mph 97 % 0.0 in
12:02 15.1 °F 14.3 °F 1028.3 in ENE 3.2 mph 8.0 mph 95 % 0.0 in
12:12 15.7 °F 14.2 °F 1028.3 in East 3.2 mph 9.7 mph 91 % 0.0 in
12:17 15.8 °F 14.0 °F 1028.3 in Calm   9.7 mph 89 % 0.0 in
12:22 16.1 °F 13.9 °F 1028.3 in East 1.6 mph 8.0 mph 87 % 0.0 in
12:32 16.7 °F 14.3 °F 1028.0 in ESE 4.8 mph 6.4 mph 86 % 0.0 in
12:42 16.8 °F 14.1 °F 1028.0 in SSE 1.6 mph 6.4 mph 84 % 0.0 in
12:52 17.3 °F 14.2 °F 1028.0 in ESE 4.8 mph 9.7 mph 82 % 0.0 in
13:02 17.4 °F 14.1 °F 1028.0 in East 4.8 mph 9.7 mph 81 % 0.0 in
13:12 17.7 °F 14.4 °F 1027.7 in East 1.6 mph 9.7 mph 81 % 0 in
13:17 17.8 °F 14.3 °F 1027.7 in Calm   9.7 mph 80 % 0.0 in
13:22 17.9 °F 14.4 °F 1027.7 in ENE 1.6 mph 9.7 mph 80 % 0.0 in
13:32 18.4 °F 14.5 °F 1027.7 in ENE 4.8 mph 9.7 mph 78 % 0.0 in
13:42 18.6 °F 14.7 °F 1027.7 in ENE 3.2 mph 6.4 mph 78 % 0.0 in
13:47 18.6 °F 14.9 °F 1027.7 in East 9.7 mph 11.3 mph 79 % 0.0 in
13:52 18.6 °F 14.5 °F 1027.7 in ENE 4.8 mph 11.3 mph 77 % 0.0 in
14:02 18.8 °F 14.3 °F 1027.3 in ESE 4.8 mph 12.9 mph 75 % 0.0 in
14:12 19.1 °F 14.1 °F 1027.3 in East 1.6 mph 9.7 mph 73 % 0.0 in
14:17 19.2 °F 14.2 °F 1027.3 in ENE 3.2 mph 14.5 mph 73 % 0.0 in
14:22 19.4 °F 14.2 °F 1027.3 in East 8.0 mph 14.5 mph 72 % 0.0 in
14:27 19.5 °F 14.1 °F 1027.3 in SE 1.6 mph 14.5 mph 71 % 0.0 in
14:32 19.7 °F 14.1 °F 1027.3 in ESE 3.2 mph 11.3 mph 70 % 0.0 in
14:42 20.1 °F 14.5 °F 1027.0 in East 6.4 mph 8.0 mph 70 % 0.0 in
14:47 20.1 °F 14.0 °F 1027.0 in SSE 4.8 mph 9.7 mph 68 % 0.0 in
14:52 20.2 °F 14.3 °F 1027.0 in Calm   9.7 mph 69 % 0.0 in
14:57 20.3 °F 14.4 °F 1027.0 in ENE 4.8 mph 9.7 mph 69 % 0.0 in
15:02 20.2 °F 14.1 °F 1027.0 in SSE 3.2 mph 8.0 mph 68 % 0.0 in
15:12 20.4 °F 14.3 °F 1027.0 in Calm   8.0 mph 68 % 0.0 in
15:17 20.7 °F 14.4 °F 1027.0 in ENE 1.6 mph 6.4 mph 67 % 0.0 in
15:22 20.8 °F 14.4 °F 1027.0 in SSW 1.6 mph 6.4 mph 67 % 0.0 in
15:32 20.6 °F 14.0 °F 1027.0 in Calm   6.4 mph 66 % 0.0 in
15:37 20.4 °F 14.3 °F 1027.0 in Calm   6.4 mph 68 % 0.0 in
15:42 20.6 °F 14.5 °F 1027.0 in Calm   6.4 mph 68 % 0.0 in
15:47 20.7 °F 14.4 °F 1027.0 in East 3.2 mph 12.9 mph 67 % 0.0 in
15:52 20.9 °F 14.3 °F 1027.0 in Calm   12.9 mph 66 % 0.0 in
15:57 20.8 °F 14.0 °F 1027.0 in Calm   12.9 mph 65 % 0.0 in
16:02 20.8 °F 14.4 °F 1027.0 in NE 1.6 mph 6.4 mph 67 % 0.0 in
16:07 20.7 °F 14.4 °F 1027.0 in North 3.2 mph 6.4 mph 67 % 0.0 in
16:12 20.7 °F 14.1 °F 1027.0 in Calm   6.4 mph 66 % 0.0 in
16:17 20.7 °F 14.1 °F 1026.6 in ENE 3.2 mph 6.4 mph 66 % 0.0 in
16:22 20.7 °F 14.1 °F 1026.6 in Calm   6.4 mph 66 % 0.0 in
16:32 20.8 °F 14.0 °F 1026.6 in East 3.2 mph 4.8 mph 65 % 0.0 in
16:37 20.9 °F 14.1 °F 1026.6 in Calm   8.0 mph 65 % 0.0 in
16:42 21.1 °F 14.0 °F 1026.6 in East 3.2 mph 8.0 mph 64 % 0.0 in
16:47 21.0 °F 14.2 °F 1026.6 in ENE 3.2 mph 8.0 mph 65 % 0.0 in
16:52 21.0 °F 13.9 °F 1026.6 in ENE 3.2 mph 8.0 mph 64 % 0.0 in
16:57 21.1 °F 14.0 °F 1026.6 in NE 3.2 mph 8.0 mph 64 % 0.0 in
17:02 21.0 °F 13.9 °F 1026.6 in Calm   6.4 mph 64 % 0.0 in
17:12 21.1 °F 14.3 °F 1026.6 in Calm   6.4 mph 65 % 0.0 in
17:17 21.1 °F 13.8 °F 1026.6 in ENE 3.2 mph 4.8 mph 63 % 0.0 in
17:22 20.9 °F 13.6 °F 1026.6 in ENE 4.8 mph 6.4 mph 63 % 0.0 in
17:32 20.8 °F 13.7 °F 1026.6 in East 1.6 mph 4.8 mph 64 % 0.0 in
17:37 20.8 °F 14.0 °F 1026.6 in Calm   4.8 mph 65 % 0.0 in
17:47 20.8 °F 13.7 °F 1026.6 in East 1.6 mph 4.8 mph 64 % 0.0 in
17:52 20.8 °F 13.7 °F 1026.6 in ENE 3.2 mph 4.8 mph 64 % 0.0 in
17:57 20.8 °F 13.7 °F 1026.6 in ENE 1.6 mph 4.8 mph 64 % 0.0 in
18:02 20.8 °F 14.0 °F 1026.6 in Calm   4.8 mph 65 % 0.0 in
18:07 20.8 °F 14.0 °F 1026.6 in East 1.6 mph 4.8 mph 65 % 0.0 in
18:12 20.7 °F 14.1 °F 1026.6 in Calm   3.2 mph 66 % 0.0 in
18:17 20.7 °F 14.1 °F 1026.6 in Calm   1.6 mph 66 % 0.0 in
18:27 20.6 °F 14.3 °F 1026.3 in Calm     67 % 0.0 in
18:32 20.6 °F 14.0 °F 1026.3 in Calm     66 % 0.0 in
18:42 20.5 °F 14.4 °F 1026.3 in Calm     68 % 0.0 in
18:47 20.1 °F 14.5 °F 1026.6 in Calm     70 % 0.0 in
18:52 19.6 °F 14.2 °F 1026.6 in Calm     71 % 0.0 in
18:57 19.0 °F 14.0 °F 1026.6 in Calm     73 % 0.0 in
19:02 18.7 °F 14.0 °F 1026.6 in Calm     74 % 0.0 in
19:07 18.3 °F 13.8 °F 1026.6 in Calm     75 % 0.0 in
19:12 17.9 °F 14.0 °F 1026.6 in Calm     78 % 0.0 in
19:17 17.4 °F 13.7 °F 1026.6 in Calm     79 % 0.0 in
19:22 17.2 °F 13.7 °F 1026.6 in Calm     80 % 0.0 in
19:27 17.2 °F 13.7 °F 1026.6 in Calm     80 % 0.0 in
19:37 16.7 °F 13.6 °F 1026.6 in WNW 1.6 mph 1.6 mph 82 % 0.0 in
19:42 16.3 °F 13.8 °F 1026.6 in WNW 1.6 mph 1.6 mph 85 % 0.0 in
19:47 16.2 °F 13.7 °F 1026.6 in Calm   1.6 mph 85 % 0.0 in
19:52 16.3 °F 13.6 °F 1026.6 in North 1.6 mph 3.2 mph 84 % 0.0 in
19:57 16.2 °F 13.5 °F 1026.6 in Calm   3.2 mph 84 % 0.0 in
20:02 16.1 °F 13.4 °F 1026.6 in Calm   3.2 mph 84 % 0.0 in
20:12 15.8 °F 13.3 °F 1026.6 in NNW 3.2 mph 3.2 mph 85 % 0.0 in
20:17 15.9 °F 13.2 °F 1026.6 in NNW 3.2 mph 3.2 mph 84 % 0.0 in
20:22 15.8 °F 12.9 °F 1027.0 in Calm   3.2 mph 83 % 0.0 in
20:27 15.6 °F 13.1 °F 1027.0 in NW 1.6 mph 3.2 mph 85 % 0.0 in
20:37 15.4 °F 12.9 °F 1027.0 in NW 3.2 mph 3.2 mph 85 % 0.0 in
20:47 15.3 °F 12.8 °F 1027.0 in Calm   3.2 mph 85 % 0.0 in
20:52 15.2 °F 12.9 °F 1027.0 in NNW 1.6 mph 3.2 mph 86 % 0.0 in
20:57 15.1 °F 12.8 °F 1027.3 in Calm   3.2 mph 86 % 0.0 in
21:02 14.9 °F 12.6 °F 1027.0 in Calm   3.2 mph 86 % 0.0 in
21:12 14.8 °F 12.8 °F 1027.0 in Calm   1.6 mph 88 % 0.0 in
21:17 14.9 °F 12.8 °F 1027.0 in Calm   1.6 mph 87 % 0.0 in
21:22 15.0 °F 12.9 °F 1027.3 in Calm   1.6 mph 87 % 0.0 in
21:32 14.9 °F 12.6 °F 1027.0 in WNW 1.6 mph 1.6 mph 86 % 0.0 in
21:37 14.4 °F 12.6 °F 1027.0 in Calm   1.6 mph 89 % 0.0 in
21:42 14.2 °F 12.4 °F 1027.0 in Calm   1.6 mph 89 % 0.0 in
21:47 14.0 °F 12.6 °F 1027.0 in Calm   3.2 mph 91 % 0.0 in
21:52 14.1 °F 12.7 °F 1027.3 in Calm   3.2 mph 91 % 0.0 in
21:57 14.1 °F 12.5 °F 1027.0 in Calm   1.6 mph 90 % 0.0 in
22:02 14.2 °F 12.6 °F 1027.0 in North 1.6 mph 1.6 mph 90 % 0.0 in
22:12 14.2 °F 12.6 °F 1027.0 in Calm   1.6 mph 90 % 0.0 in
22:22 14.1 °F 12.3 °F 1027.0 in Calm   1.6 mph 89 % 0.0 in
22:32 13.6 °F 12.2 °F 1027.3 in WNW 1.6 mph 3.2 mph 91 % 0.0 in
22:37 13.3 °F 12.0 °F 1027.3 in WNW 1.6 mph 3.2 mph 92 % 0.0 in
22:42 13.1 °F 11.8 °F 1027.3 in WNW 1.6 mph 3.2 mph 92 % 0.0 in
22:52 13.3 °F 12.4 °F 1027.3 in NNW 1.6 mph 3.2 mph 94 % 0.0 in
22:57 13.4 °F 12.3 °F 1027.3 in Calm   3.2 mph 93 % 0.0 in
23:02 13.3 °F 12.0 °F 1027.3 in Calm   3.2 mph 92 % 0.0 in
23:12 13.4 °F 12.3 °F 1027.3 in Calm   1.6 mph 93 % 0.0 in
23:17 13.4 °F 12.3 °F 1027.3 in Calm   1.6 mph 93 % 0.0 in
23:22 13.4 °F 12.3 °F 1027.3 in Calm   1.6 mph 93 % 0.0 in
23:32 13.4 °F 12.1 °F 1027.3 in Calm   1.6 mph 92 % 0.0 in
23:37 13.3 °F 12.0 °F 1027.3 in Calm   1.6 mph 92 % 0.0 in
23:42 13.0 °F 11.7 °F 1027.3 in Calm     92 % 0.0 in
23:47 12.9 °F 11.6 °F 1027.3 in WNW 3.2 mph   92 % 0.0 in
23:52 12.7 °F 11.6 °F 1027.3 in WNW 1.6 mph 3.2 mph 93 % 0.0 in
23:57 12.4 °F 11.3 °F 1027.0 in WNW 1.6 mph 3.2 mph 93 % 0.0 in
Meteo18
Compliments of Weather Underground - 4 mb

Script developed by  Jim McMurry - jmcmurry@mwt.net Adapted for the template by  Wim van der Kuil - Leuven-Template.eu

You find our weather info also at:

European Weather Network

Weather Underground

Equipment we use:

Weather-station
Davis Vue

Weather-program
Meteobridge

Weather-server
Raspberry PI 2 B+

Provider
1 and 1

Davis Vue

Meteobridge

Raspberry PI 2 B+

1 and 1